createdAt,value
2018-09-18T00:01:20.282Z,8.33
2018-09-18T00:03:48.542Z,10.60
2018-09-18T00:06:16.778Z,8.33
2018-09-18T00:08:45.009Z,8.80
2018-09-18T00:11:13.216Z,8.87
2018-09-18T00:13:41.466Z,10.00
2018-09-18T00:16:09.730Z,9.53
2018-09-18T00:18:38.085Z,9.50
2018-09-18T00:21:06.282Z,8.77
2018-09-18T00:23:34.477Z,9.27
2018-09-18T00:26:02.663Z,9.10
2018-09-18T00:28:31.052Z,8.33
2018-09-18T00:30:59.213Z,7.93
2018-09-18T00:33:27.397Z,7.70
2018-09-18T00:35:55.718Z,8.10
2018-09-18T00:38:23.985Z,8.00
2018-09-18T00:40:52.222Z,7.47
2018-09-18T00:43:20.388Z,7.80
2018-09-18T00:45:48.863Z,8.07
2018-09-18T00:48:17.091Z,7.60
2018-09-18T00:50:45.451Z,7.87
2018-09-18T00:53:13.853Z,8.07
2018-09-18T00:55:42.110Z,8.50
2018-09-18T00:58:10.388Z,10.43
2018-09-18T01:00:38.556Z,8.27
2018-09-18T01:03:06.731Z,7.73
2018-09-18T01:05:35.042Z,7.10
2018-09-18T01:08:03.229Z,7.83
2018-09-18T01:10:31.471Z,8.43
2018-09-18T01:12:59.716Z,8.43
2018-09-18T01:15:27.958Z,8.03
2018-09-18T01:17:56.120Z,7.17
2018-09-18T01:20:24.325Z,7.90
2018-09-18T01:22:53.434Z,8.00
2018-09-18T01:25:21.778Z,8.70
2018-09-18T01:27:50.150Z,7.50
2018-09-18T01:30:18.361Z,8.33
2018-09-18T01:32:46.676Z,7.93
2018-09-18T01:35:14.876Z,7.23
2018-09-18T01:37:43.131Z,7.53
2018-09-18T01:40:11.336Z,7.13
2018-09-18T01:42:39.539Z,7.30
2018-09-18T01:45:07.821Z,7.53
2018-09-18T01:47:36.198Z,7.00
2018-09-18T01:50:04.568Z,8.03
2018-09-18T01:52:32.845Z,7.37
2018-09-18T01:55:01.032Z,7.17
2018-09-18T01:57:29.252Z,7.40
2018-09-18T01:59:57.436Z,7.20
2018-09-18T02:02:25.644Z,7.47
2018-09-18T02:04:53.872Z,7.20
2018-09-18T02:07:22.251Z,6.33
2018-09-18T02:09:50.481Z,6.77
2018-09-18T02:12:18.634Z,6.93
2018-09-18T02:14:46.886Z,6.17
2018-09-18T02:17:15.164Z,6.50
2018-09-18T02:19:43.725Z,7.90
2018-09-18T02:22:12.005Z,6.97
2018-09-18T02:24:40.301Z,7.47
2018-09-18T02:27:08.512Z,7.40
2018-09-18T02:29:36.715Z,7.80
2018-09-18T02:32:04.915Z,6.83
2018-09-18T02:34:33.103Z,7.10
2018-09-18T02:37:01.366Z,6.90
2018-09-18T02:39:29.661Z,7.30
2018-09-18T02:41:57.869Z,6.90
2018-09-18T02:44:26.084Z,7.70
2018-09-18T02:46:54.286Z,7.20
2018-09-18T02:49:22.465Z,7.70
2018-09-18T02:51:51.038Z,7.93
2018-09-18T02:54:19.230Z,8.00
2018-09-18T02:56:47.424Z,11.00
2018-09-18T02:59:15.612Z,10.60
2018-09-18T03:01:43.916Z,10.30
2018-09-18T03:04:12.116Z,10.50
2018-09-18T03:06:40.305Z,11.23
2018-09-18T03:09:09.531Z,10.80
2018-09-18T03:11:37.896Z,10.70
2018-09-18T03:14:06.275Z,11.70
2018-09-18T03:16:34.539Z,11.00
2018-09-18T03:19:02.783Z,12.03
2018-09-18T03:21:31.055Z,12.43
2018-09-18T03:23:59.263Z,11.97
2018-09-18T03:26:27.606Z,11.17
2018-09-18T03:28:55.814Z,11.27
2018-09-18T03:31:24.009Z,9.93
2018-09-18T03:33:52.889Z,10.97
2018-09-18T03:36:21.085Z,12.67
2018-09-18T03:38:49.427Z,13.27
2018-09-18T03:41:18.451Z,15.13
2018-09-18T03:43:46.697Z,15.63
2018-09-18T03:46:14.937Z,15.33
2018-09-18T03:48:43.187Z,16.90
2018-09-18T03:51:11.399Z,15.43
2018-09-18T03:53:39.665Z,16.67
2018-09-18T03:56:08.059Z,15.30
2018-09-18T03:58:36.258Z,15.47
2018-09-18T04:01:04.633Z,12.70
2018-09-18T04:03:33.087Z,12.20
2018-09-18T04:06:01.457Z,11.83
2018-09-18T04:08:29.693Z,11.83
2018-09-18T04:10:58.061Z,9.70
2018-09-18T04:13:26.500Z,10.00
2018-09-18T04:15:54.903Z,9.67
2018-09-18T04:18:25.120Z,9.93
2018-09-18T04:20:53.478Z,8.73
2018-09-18T04:23:21.805Z,10.63
2018-09-18T04:25:50.192Z,10.70
2018-09-18T04:28:18.420Z,11.37
2018-09-18T04:30:46.744Z,12.87
2018-09-18T04:33:14.963Z,17.70
2018-09-18T04:35:43.130Z,18.33
2018-09-18T04:38:11.340Z,20.33
2018-09-18T04:40:39.593Z,22.27
2018-09-18T04:43:07.867Z,24.93
2018-09-18T04:45:36.060Z,30.90
2018-09-18T04:48:04.262Z,32.80
2018-09-18T04:50:32.621Z,38.90
2018-09-18T04:53:01.118Z,39.20
2018-09-18T04:55:29.340Z,34.80
2018-09-18T04:57:57.648Z,31.27
2018-09-18T05:00:25.953Z,26.17
2018-09-18T05:02:54.185Z,21.20
2018-09-18T05:05:22.406Z,20.10
2018-09-18T05:07:50.578Z,18.93
2018-09-18T05:10:18.796Z,15.80
2018-09-18T05:12:47.925Z,16.40
2018-09-18T05:15:16.263Z,17.40
2018-09-18T05:17:44.980Z,16.47
2018-09-18T05:20:13.259Z,16.70
2018-09-18T05:22:41.440Z,17.80
2018-09-18T05:25:09.690Z,17.20
2018-09-18T05:27:37.865Z,14.93
2018-09-18T05:30:06.155Z,15.57
2018-09-18T05:32:34.419Z,15.90
2018-09-18T05:35:02.765Z,16.47
2018-09-18T05:37:30.895Z,14.60
2018-09-18T05:39:59.137Z,14.80
2018-09-18T05:42:27.675Z,13.87
2018-09-18T05:44:55.869Z,12.73
2018-09-18T05:47:24.060Z,12.33
2018-09-18T05:49:52.401Z,12.03
2018-09-18T05:52:20.822Z,12.53
2018-09-18T05:54:49.051Z,11.47
2018-09-18T05:57:23.698Z,10.67
2018-09-18T05:59:52.131Z,13.40
2018-09-18T06:02:20.475Z,13.13
2018-09-18T06:04:48.618Z,11.70
2018-09-18T06:07:16.894Z,10.20
2018-09-18T06:09:45.232Z,12.03
2018-09-18T06:12:13.644Z,10.53
2018-09-18T06:14:42.074Z,11.80
2018-09-18T06:17:10.463Z,11.30
2018-09-18T06:19:38.764Z,11.73
2018-09-18T06:22:07.305Z,10.53
2018-09-18T06:24:35.738Z,10.30
2018-09-18T06:27:04.615Z,9.63
2018-09-18T06:29:32.952Z,9.63
2018-09-18T06:32:01.261Z,10.23
2018-09-18T06:34:29.542Z,11.17
2018-09-18T06:36:58.137Z,12.50
2018-09-18T06:39:26.408Z,9.87
2018-09-18T06:41:54.655Z,9.90
2018-09-18T06:44:22.946Z,9.57
2018-09-18T06:46:51.216Z,9.20
2018-09-18T06:49:19.778Z,11.00
2018-09-18T06:51:48.033Z,9.80
2018-09-18T06:54:16.378Z,11.80
2018-09-18T06:56:44.662Z,10.03
2018-09-18T06:59:13.645Z,9.03
2018-09-18T07:01:42.004Z,10.40
2018-09-18T07:04:10.579Z,13.87
2018-09-18T07:06:38.774Z,9.30
2018-09-18T07:09:08.322Z,10.37
2018-09-18T07:11:36.534Z,9.53
2018-09-18T07:14:04.916Z,11.17
2018-09-18T07:16:33.324Z,9.53
2018-09-18T07:19:01.772Z,10.47
2018-09-18T07:21:30.258Z,10.43
2018-09-18T07:23:58.748Z,10.40
2018-09-18T07:26:27.051Z,10.10
2018-09-18T07:28:55.320Z,12.20
2018-09-18T07:31:23.780Z,10.87
2018-09-18T07:33:52.809Z,10.37
2018-09-18T07:36:21.052Z,9.63
2018-09-18T07:38:49.639Z,10.83
2018-09-18T07:41:17.818Z,9.90
2018-09-18T07:43:46.136Z,11.13
2018-09-18T07:46:14.412Z,9.87
2018-09-18T07:48:42.834Z,9.57
2018-09-18T07:51:11.124Z,12.40
2018-09-18T07:53:39.497Z,9.67
2018-09-18T07:56:07.870Z,10.60
2018-09-18T07:58:36.161Z,9.53
2018-09-18T08:01:04.336Z,8.93
2018-09-18T08:03:32.649Z,10.20
2018-09-18T08:06:00.953Z,8.73
2018-09-18T08:08:29.151Z,9.60
2018-09-18T08:10:57.691Z,10.13
2018-09-18T08:13:26.123Z,12.70
2018-09-18T08:15:54.297Z,13.13
2018-09-18T08:18:22.498Z,9.50
2018-09-18T08:20:50.732Z,8.47
2018-09-18T08:23:19.001Z,8.33
2018-09-18T08:25:47.474Z,10.80
2018-09-18T08:28:15.685Z,8.43
2018-09-18T08:30:43.858Z,7.77
2018-09-18T08:33:12.323Z,8.07
2018-09-18T08:35:40.529Z,7.87
2018-09-18T08:38:08.797Z,8.97
2018-09-18T08:40:36.941Z,19.70
2018-09-18T08:43:05.167Z,11.03
2018-09-18T08:45:33.620Z,8.60
2018-09-18T08:48:01.827Z,15.37
2018-09-18T08:50:32.064Z,8.33
2018-09-18T08:53:00.325Z,10.20
2018-09-18T08:55:28.523Z,10.93
2018-09-18T08:57:56.866Z,10.50
2018-09-18T09:00:25.214Z,7.10
2018-09-18T09:02:53.617Z,8.60
2018-09-18T09:05:22.002Z,8.97
2018-09-18T09:07:50.332Z,7.80
2018-09-18T09:10:18.508Z,9.07
2018-09-18T09:12:47.009Z,9.10
2018-09-18T09:15:15.241Z,8.90
2018-09-18T09:17:43.479Z,8.70
2018-09-18T09:20:11.829Z,8.60
2018-09-18T09:22:40.104Z,7.37
2018-09-18T09:25:08.325Z,9.93
2018-09-18T09:27:36.722Z,9.93
2018-09-18T09:30:05.059Z,8.70
2018-09-18T09:32:33.485Z,8.17
2018-09-18T09:35:01.901Z,7.77
2018-09-18T09:37:30.174Z,8.37
2018-09-18T09:39:58.695Z,8.90
2018-09-18T09:42:27.131Z,8.47
2018-09-18T09:44:55.446Z,9.77
2018-09-18T09:47:24.365Z,8.23
2018-09-18T09:49:53.407Z,11.03
2018-09-18T09:52:21.783Z,11.30
2018-09-18T09:54:50.174Z,9.30
2018-09-18T09:57:18.525Z,10.57
2018-09-18T09:59:46.837Z,9.63
2018-09-18T10:02:17.611Z,8.47
2018-09-18T10:04:46.287Z,11.40
2018-09-18T10:07:14.843Z,8.90
2018-09-18T10:09:43.805Z,8.83
2018-09-18T10:12:11.966Z,10.03
2018-09-18T10:14:40.298Z,7.37
2018-09-18T10:17:09.171Z,8.23
2018-09-18T10:19:37.538Z,8.33
2018-09-18T10:22:05.877Z,12.10
2018-09-18T10:24:34.419Z,9.50
2018-09-18T10:27:02.898Z,9.13
2018-09-18T10:29:31.379Z,9.93
2018-09-18T10:31:59.857Z,8.10
2018-09-18T10:34:28.107Z,7.23
2018-09-18T10:36:56.694Z,7.20
2018-09-18T10:39:25.185Z,6.43
2018-09-18T10:41:54.530Z,5.83
2018-09-18T10:44:22.996Z,6.27
2018-09-18T10:46:51.339Z,7.07
2018-09-18T10:49:19.561Z,5.70
2018-09-18T10:51:47.816Z,5.93
2018-09-18T10:54:16.262Z,7.07
2018-09-18T10:56:44.712Z,6.23
2018-09-18T10:59:17.185Z,5.93
2018-09-18T11:01:45.438Z,6.73
2018-09-18T11:04:13.733Z,6.77
2018-09-18T11:06:41.965Z,7.17
2018-09-18T11:09:11.422Z,6.83
2018-09-18T11:11:40.808Z,5.40
2018-09-18T11:14:09.476Z,5.00
2018-09-18T11:16:37.843Z,5.63
2018-09-18T11:19:07.081Z,5.67
2018-09-18T11:21:40.829Z,5.30
2018-09-18T11:24:09.412Z,4.73
2018-09-18T11:26:39.085Z,5.83
2018-09-18T11:29:07.318Z,5.50
2018-09-18T11:31:37.998Z,5.20
2018-09-18T11:34:06.319Z,4.47
2018-09-18T11:36:37.775Z,5.77
2018-09-18T11:39:07.066Z,8.07
2018-09-18T11:41:35.415Z,7.30
2018-09-18T11:44:04.240Z,8.97
2018-09-18T11:46:39.696Z,5.83
2018-09-18T11:49:08.267Z,5.83
2018-09-18T11:51:36.698Z,5.57
2018-09-18T11:54:05.211Z,6.50
2018-09-18T11:56:33.613Z,7.43
2018-09-18T11:59:02.796Z,6.90
2018-09-18T12:01:32.397Z,4.50
2018-09-18T12:04:00.950Z,5.77
2018-09-18T12:06:29.409Z,5.63
2018-09-18T12:08:57.664Z,6.03
2018-09-18T12:11:26.026Z,6.87
2018-09-18T12:13:54.295Z,6.00
2018-09-18T12:16:23.136Z,5.30
2018-09-18T12:18:52.798Z,5.30
2018-09-18T12:21:21.542Z,4.67
2018-09-18T12:23:49.950Z,4.60
2018-09-18T12:26:18.888Z,4.63
2018-09-18T12:28:47.526Z,5.20
2018-09-18T12:31:16.235Z,4.73
2018-09-18T12:33:44.506Z,4.77
2018-09-18T12:36:12.752Z,4.70
2018-09-18T12:38:41.197Z,5.20
2018-09-18T12:41:09.495Z,5.50
2018-09-18T12:43:37.675Z,4.47
2018-09-18T12:46:06.105Z,4.30
2018-09-18T12:48:34.734Z,4.57
2018-09-18T12:51:03.235Z,5.60
2018-09-18T12:53:31.481Z,5.20
2018-09-18T12:56:00.046Z,4.63
2018-09-18T12:58:28.274Z,7.50
2018-09-18T13:00:56.764Z,7.40
2018-09-18T13:03:25.081Z,5.60
2018-09-18T13:05:53.624Z,5.20
2018-09-18T13:08:21.935Z,4.60
2018-09-18T13:10:50.317Z,5.70
2018-09-18T13:13:19.621Z,6.53
2018-09-18T13:15:48.408Z,6.17
2018-09-18T13:18:17.346Z,5.87
2018-09-18T13:20:45.629Z,5.80
2018-09-18T13:23:13.969Z,7.37
2018-09-18T13:25:43.100Z,5.10
2018-09-18T13:28:11.540Z,4.83
2018-09-18T13:30:41.377Z,5.20
2018-09-18T13:33:09.720Z,5.70
2018-09-18T13:35:37.972Z,5.50
2018-09-18T13:38:06.281Z,4.90
2018-09-18T13:40:34.599Z,5.00
2018-09-18T13:43:03.110Z,4.60
2018-09-18T13:45:31.446Z,5.27
2018-09-18T13:47:59.697Z,5.30
2018-09-18T13:50:27.917Z,7.63
2018-09-18T13:52:56.177Z,5.47
2018-09-18T13:55:24.591Z,5.90
2018-09-18T13:57:52.872Z,5.23
2018-09-18T14:00:21.183Z,4.80
2018-09-18T14:02:49.679Z,5.67
2018-09-18T14:05:18.373Z,4.47
2018-09-18T14:07:46.754Z,5.67
2018-09-18T14:10:16.146Z,6.20
2018-09-18T14:12:44.435Z,4.90
2018-09-18T14:15:12.833Z,6.87
2018-09-18T14:17:41.153Z,5.60
2018-09-18T14:20:09.536Z,6.33
2018-09-18T14:22:38.253Z,5.87
2018-09-18T14:25:06.623Z,5.53
2018-09-18T14:27:35.563Z,7.93
2018-09-18T14:30:04.164Z,5.33
2018-09-18T14:32:33.178Z,5.57
2018-09-18T14:35:01.487Z,6.33
2018-09-18T14:37:29.896Z,5.60
2018-09-18T14:39:58.889Z,7.67
2018-09-18T14:42:27.371Z,4.93
2018-09-18T14:44:55.627Z,7.23
2018-09-18T14:47:23.962Z,7.70
2018-09-18T14:49:52.353Z,6.03
2018-09-18T14:52:20.619Z,6.37
2018-09-18T14:54:49.070Z,5.80
2018-09-18T14:57:17.410Z,6.53
2018-09-18T14:59:45.712Z,5.60
2018-09-18T15:02:14.354Z,7.13
2018-09-18T15:04:42.948Z,6.37
2018-09-18T15:07:11.418Z,5.33
2018-09-18T15:09:40.190Z,9.90
2018-09-18T15:12:08.515Z,6.40
2018-09-18T15:14:37.088Z,5.73
2018-09-18T15:17:05.353Z,5.00
2018-09-18T15:19:34.284Z,5.17
2018-09-18T15:22:02.915Z,4.70
2018-09-18T15:24:32.097Z,5.67
2018-09-18T15:27:00.459Z,5.20
2018-09-18T15:29:29.116Z,5.90
2018-09-18T15:31:57.439Z,8.10
2018-09-18T15:34:25.734Z,6.23
2018-09-18T15:36:54.442Z,6.10
2018-09-18T15:39:22.928Z,5.67
2018-09-18T15:41:51.105Z,5.60
2018-09-18T15:44:19.660Z,6.00
2018-09-18T15:46:47.901Z,10.13
2018-09-18T15:49:16.543Z,7.37
2018-09-18T15:51:45.461Z,6.30
2018-09-18T15:54:13.717Z,6.60
2018-09-18T15:56:42.108Z,6.53
2018-09-18T15:59:10.548Z,5.37
2018-09-18T16:01:38.859Z,6.53
2018-09-18T16:04:07.207Z,5.67
2018-09-18T16:06:35.647Z,5.80
2018-09-18T16:09:05.397Z,6.13
2018-09-18T16:11:34.137Z,6.50
2018-09-18T16:14:02.484Z,6.40
2018-09-18T16:16:31.672Z,7.80
2018-09-18T16:18:59.898Z,5.93
2018-09-18T16:21:29.652Z,5.80
2018-09-18T16:23:57.920Z,7.70
2018-09-18T16:26:26.618Z,6.53
2018-09-18T16:28:58.016Z,8.40
2018-09-18T16:31:26.486Z,10.03
2018-09-18T16:33:54.790Z,7.20
2018-09-18T16:36:23.006Z,6.80
2018-09-18T16:38:51.472Z,6.27
2018-09-18T16:41:19.731Z,7.23
2018-09-18T16:43:48.258Z,7.17
2018-09-18T16:46:16.787Z,6.93
2018-09-18T16:48:45.513Z,6.07
2018-09-18T16:51:14.666Z,7.63
2018-09-18T16:53:42.921Z,8.77
2018-09-18T16:56:12.102Z,5.90
2018-09-18T16:58:40.489Z,7.77
2018-09-18T17:01:08.822Z,7.47
2018-09-18T17:03:37.062Z,7.50
2018-09-18T17:06:05.572Z,7.47
2018-09-18T17:08:33.960Z,7.37
2018-09-18T17:11:02.262Z,8.83
2018-09-18T17:13:30.718Z,10.93
2018-09-18T17:15:59.205Z,9.77
2018-09-18T17:18:27.858Z,9.93
2018-09-18T17:20:56.125Z,9.17
2018-09-18T17:23:24.458Z,14.50
2018-09-18T17:25:52.945Z,17.13
2018-09-18T17:28:22.099Z,14.47
2018-09-18T17:30:50.306Z,15.80
2018-09-18T17:33:18.638Z,16.37
2018-09-18T17:35:47.220Z,18.30
2018-09-18T17:38:15.880Z,17.63
2018-09-18T17:40:46.016Z,16.60
2018-09-18T17:43:17.675Z,15.33
2018-09-18T17:45:46.107Z,15.33
2018-09-18T17:48:17.320Z,14.57
2018-09-18T17:50:45.550Z,16.00
2018-09-18T17:53:13.849Z,16.83
2018-09-18T17:55:42.189Z,14.13
2018-09-18T17:58:10.515Z,12.93
2018-09-18T18:00:38.888Z,12.87
2018-09-18T18:03:07.260Z,13.20
2018-09-18T18:05:35.627Z,14.23
2018-09-18T18:08:03.961Z,14.83
2018-09-18T18:10:32.272Z,14.50
2018-09-18T18:13:00.537Z,13.80
2018-09-18T18:15:31.700Z,15.27
2018-09-18T18:18:00.413Z,22.60
2018-09-18T18:20:29.573Z,16.40
2018-09-18T18:22:57.842Z,16.77
2018-09-18T18:25:26.237Z,15.63
2018-09-18T18:27:54.558Z,14.53
2018-09-18T18:30:22.861Z,13.00
2018-09-18T18:32:51.157Z,14.53
2018-09-18T18:35:19.395Z,15.97
2018-09-18T18:37:47.622Z,13.93
2018-09-18T18:40:16.005Z,15.57
2018-09-18T18:42:44.316Z,14.73
2018-09-18T18:45:13.423Z,17.60
2018-09-18T18:47:42.105Z,16.10
2018-09-18T18:50:10.724Z,12.30
2018-09-18T18:52:39.190Z,15.00
2018-09-18T18:55:07.693Z,13.20
2018-09-18T18:57:36.622Z,12.00
2018-09-18T19:00:05.292Z,12.77
2018-09-18T19:02:33.731Z,15.83
2018-09-18T19:05:02.226Z,12.57
2018-09-18T19:07:33.005Z,10.43
2018-09-18T19:10:02.928Z,11.20
2018-09-18T19:12:32.736Z,12.00
2018-09-18T19:15:06.821Z,14.40
2018-09-18T19:17:37.873Z,13.70
2018-09-18T19:20:15.066Z,12.43
2018-09-18T19:22:52.484Z,12.13
2018-09-18T19:25:22.154Z,12.77
2018-09-18T19:27:50.854Z,15.47
2018-09-18T19:30:19.163Z,11.97
2018-09-18T19:32:47.473Z,10.40
2018-09-18T19:35:16.131Z,11.00
2018-09-18T19:37:44.909Z,10.47
2018-09-18T19:40:14.140Z,9.97
2018-09-18T19:42:43.077Z,10.43
2018-09-18T19:45:11.493Z,13.07
2018-09-18T19:47:40.349Z,13.80
2018-09-18T19:50:13.652Z,14.50
2018-09-18T19:52:42.015Z,14.23
2018-09-18T19:55:11.174Z,11.67
2018-09-18T19:57:40.487Z,19.73
2018-09-18T20:00:09.771Z,14.40
2018-09-18T20:02:38.324Z,12.67
2018-09-18T20:05:06.811Z,12.83
2018-09-18T20:07:35.681Z,13.30
2018-09-18T20:10:05.282Z,11.20
2018-09-18T20:12:34.477Z,11.33
2018-09-18T20:15:03.468Z,10.37
2018-09-18T20:17:34.801Z,10.03
2018-09-18T20:20:04.128Z,9.80
2018-09-18T20:22:32.553Z,12.47
2018-09-18T20:25:00.898Z,9.43
2018-09-18T20:27:29.211Z,12.10
2018-09-18T20:29:57.628Z,9.17
2018-09-18T20:32:26.242Z,9.70
2018-09-18T20:34:54.621Z,10.60
2018-09-18T20:37:22.918Z,11.77
2018-09-18T20:39:51.968Z,11.40
2018-09-18T20:42:20.291Z,10.70
2018-09-18T20:44:48.828Z,10.87
2018-09-18T20:47:17.100Z,12.07
2018-09-18T20:49:45.584Z,20.40
2018-09-18T20:52:13.821Z,13.23
2018-09-18T20:54:42.093Z,12.80
2018-09-18T20:57:10.352Z,15.07
2018-09-18T20:59:38.656Z,13.17
2018-09-18T21:02:07.115Z,13.57
2018-09-18T21:04:35.362Z,13.67
2018-09-18T21:07:03.662Z,14.70
2018-09-18T21:09:31.932Z,13.03
2018-09-18T21:12:00.266Z,12.13
2018-09-18T21:14:28.482Z,11.97
2018-09-18T21:16:56.756Z,12.10
2018-09-18T21:19:24.949Z,12.83
2018-09-18T21:21:53.285Z,12.13
2018-09-18T21:24:21.540Z,11.00
2018-09-18T21:26:49.782Z,9.93
2018-09-18T21:29:18.038Z,12.50
2018-09-18T21:31:46.244Z,11.63
2018-09-18T21:34:14.504Z,10.50
2018-09-18T21:36:42.745Z,9.77
2018-09-18T21:39:11.365Z,10.90
2018-09-18T21:41:39.633Z,10.83
2018-09-18T21:44:07.826Z,8.70
2018-09-18T21:46:36.001Z,9.17
2018-09-18T21:49:04.290Z,9.73
2018-09-18T21:51:32.662Z,10.30
2018-09-18T21:54:00.883Z,9.67
2018-09-18T21:56:29.255Z,10.07
2018-09-18T21:58:57.431Z,9.67
2018-09-18T22:01:25.655Z,10.23
2018-09-18T22:03:53.802Z,9.00
2018-09-18T22:06:22.551Z,10.27
2018-09-18T22:08:50.881Z,9.57
2018-09-18T22:11:19.262Z,10.17
2018-09-18T22:13:47.686Z,10.67
2018-09-18T22:16:15.849Z,10.37
2018-09-18T22:18:44.037Z,11.07
2018-09-18T22:21:12.248Z,10.43
2018-09-18T22:23:40.504Z,10.27
2018-09-18T22:26:08.618Z,10.60
2018-09-18T22:28:36.834Z,11.83
2018-09-18T22:31:05.103Z,11.70
2018-09-18T22:33:33.371Z,11.33
2018-09-18T22:36:01.613Z,10.63
2018-09-18T22:38:29.866Z,11.33
2018-09-18T22:40:57.987Z,10.40
2018-09-18T22:43:26.167Z,10.77
2018-09-18T22:46:01.264Z,10.80
2018-09-18T22:48:29.483Z,10.20
2018-09-18T22:50:57.857Z,10.57
2018-09-18T22:53:26.055Z,10.03
2018-09-18T22:55:54.289Z,9.70
2018-09-18T22:58:22.501Z,10.23
2018-09-18T23:00:50.680Z,11.07
2018-09-18T23:03:18.889Z,10.37
2018-09-18T23:05:47.023Z,10.17
2018-09-18T23:08:15.288Z,10.03
2018-09-18T23:10:43.447Z,9.83
2018-09-18T23:13:11.581Z,9.80
2018-09-18T23:15:39.769Z,9.23
2018-09-18T23:18:08.078Z,9.90
2018-09-18T23:20:36.313Z,10.30
2018-09-18T23:23:04.590Z,9.03
2018-09-18T23:25:32.758Z,9.07
2018-09-18T23:28:00.928Z,10.73
2018-09-18T23:30:29.068Z,9.10
2018-09-18T23:32:57.277Z,9.73
2018-09-18T23:35:25.486Z,9.80
2018-09-18T23:37:53.678Z,9.87
2018-09-18T23:40:21.877Z,10.37
2018-09-18T23:42:50.032Z,9.87
2018-09-18T23:45:18.386Z,10.67
2018-09-18T23:47:46.533Z,10.37
2018-09-18T23:50:14.868Z,10.13
2018-09-18T23:52:43.014Z,11.07
2018-09-18T23:55:11.323Z,11.37
2018-09-18T23:57:39.757Z,10.50
